createdAt,value
2023-06-20T00:02:16.868Z,24.60
2023-06-20T00:05:07.378Z,24.60
2023-06-20T00:08:16.762Z,24.50
2023-06-20T00:10:47.842Z,24.50
2023-06-20T00:13:19.251Z,24.50
2023-06-20T00:15:48.993Z,24.50
2023-06-20T00:18:21.833Z,24.50
2023-06-20T00:21:11.360Z,24.40
2023-06-20T00:23:45.564Z,24.40
2023-06-20T00:26:18.052Z,24.40
2023-06-20T00:28:48.591Z,24.40
2023-06-20T00:31:21.651Z,24.40
2023-06-20T00:33:53.030Z,24.40
2023-06-20T00:36:27.288Z,24.40
2023-06-20T00:38:58.956Z,24.40
2023-06-20T00:41:28.751Z,24.40
2023-06-20T00:43:57.069Z,24.30
2023-06-20T00:46:33.292Z,24.30
2023-06-20T00:49:15.277Z,24.30
2023-06-20T00:51:47.525Z,24.30
2023-06-20T00:54:56.062Z,24.30
2023-06-20T00:57:27.453Z,24.30
2023-06-20T01:00:16.311Z,24.30
2023-06-20T01:03:13.753Z,24.30
2023-06-20T01:05:54.272Z,24.20
2023-06-20T01:08:51.415Z,24.20
2023-06-20T01:11:49.467Z,24.20
2023-06-20T01:14:30.179Z,24.20
2023-06-20T01:17:06.606Z,24.10
2023-06-20T01:20:14.669Z,24.10
2023-06-20T01:22:58.977Z,24.10
2023-06-20T01:25:56.751Z,24.10
2023-06-20T01:28:40.458Z,24.10
2023-06-20T01:31:37.039Z,24.10
2023-06-20T01:34:29.595Z,24.10
2023-06-20T01:37:02.337Z,24.00
2023-06-20T01:39:40.461Z,24.00
2023-06-20T01:42:40.846Z,24.00
2023-06-20T01:45:12.820Z,24.00
2023-06-20T01:47:45.527Z,23.90
2023-06-20T01:50:16.599Z,23.90
2023-06-20T01:52:54.731Z,23.90
2023-06-20T01:55:50.722Z,23.90
2023-06-20T01:58:45.268Z,23.90
2023-06-20T02:01:21.630Z,23.80
2023-06-20T02:03:53.621Z,23.80
2023-06-20T02:06:38.444Z,23.80
2023-06-20T02:09:09.011Z,23.80
2023-06-20T02:11:40.965Z,23.80
2023-06-20T02:17:41.467Z,23.70
2023-06-20T02:20:11.134Z,23.70
2023-06-20T02:22:44.643Z,23.70
2023-06-20T02:25:37.661Z,23.70
2023-06-20T02:28:16.486Z,23.70
2023-06-20T02:30:51.692Z,23.60
2023-06-20T02:33:41.208Z,23.60
2023-06-20T02:38:59.982Z,23.60
2023-06-20T02:41:32.841Z,23.60
2023-06-20T02:44:09.169Z,23.60
2023-06-20T02:46:53.866Z,23.50
2023-06-20T02:49:36.226Z,23.60
2023-06-20T02:52:40.298Z,23.50
2023-06-20T02:55:14.525Z,23.50
2023-06-20T02:57:50.144Z,23.50
2023-06-20T03:00:21.533Z,23.50
2023-06-20T03:03:15.423Z,23.50
2023-06-20T03:06:07.678Z,23.50
2023-06-20T03:08:44.900Z,23.50
2023-06-20T03:11:36.840Z,23.50
2023-06-20T03:14:25.352Z,23.50
2023-06-20T03:16:56.431Z,23.50
2023-06-20T03:19:28.116Z,23.50
2023-06-20T03:22:31.244Z,23.50
2023-06-20T03:25:03.478Z,23.50
2023-06-20T03:28:19.811Z,23.50
2023-06-20T03:31:28.942Z,23.50
2023-06-20T03:34:00.196Z,23.50
2023-06-20T03:36:29.891Z,23.50
2023-06-20T03:39:05.654Z,23.50
2023-06-20T03:41:34.022Z,23.50
2023-06-20T03:44:02.321Z,23.50
2023-06-20T03:46:32.688Z,23.50
2023-06-20T03:49:04.926Z,23.50
2023-06-20T03:51:33.990Z,23.50
2023-06-20T03:54:04.458Z,23.50
2023-06-20T03:56:38.931Z,23.50
2023-06-20T03:59:10.465Z,23.50
2023-06-20T04:01:41.192Z,23.50
2023-06-20T04:04:17.824Z,23.50
2023-06-20T04:06:55.186Z,23.50
2023-06-20T04:09:26.951Z,23.50
2023-06-20T04:11:56.882Z,23.50
2023-06-20T04:14:38.749Z,23.50
2023-06-20T04:17:11.820Z,23.50
2023-06-20T04:19:44.950Z,23.50
2023-06-20T04:22:36.203Z,23.50
2023-06-20T04:25:18.463Z,23.50
2023-06-20T04:27:55.295Z,23.50
2023-06-20T04:30:25.613Z,23.50
2023-06-20T04:32:55.913Z,23.50
2023-06-20T04:35:42.368Z,23.50
2023-06-20T04:38:14.434Z,23.50
2023-06-20T04:41:03.293Z,23.40
2023-06-20T04:43:34.522Z,23.50
2023-06-20T04:46:08.132Z,23.50
2023-06-20T04:48:37.283Z,23.50
2023-06-20T04:51:09.772Z,23.50
2023-06-20T04:53:41.591Z,23.50
2023-06-20T04:56:43.762Z,23.50
2023-06-20T04:59:13.267Z,23.50
2023-06-20T05:01:45.024Z,23.60
2023-06-20T05:04:14.597Z,23.50
2023-06-20T05:06:47.218Z,23.50
2023-06-20T05:09:19.524Z,23.50
2023-06-20T05:11:47.561Z,23.50
2023-06-20T05:14:15.566Z,23.50
2023-06-20T05:16:45.943Z,23.60
2023-06-20T05:19:14.023Z,23.60
2023-06-20T05:21:44.036Z,23.60
2023-06-20T05:24:12.933Z,23.60
2023-06-20T05:26:43.701Z,23.60
2023-06-20T05:29:11.857Z,23.60
2023-06-20T05:31:42.436Z,23.60
2023-06-20T05:34:10.686Z,23.60
2023-06-20T05:36:38.714Z,23.60
2023-06-20T05:39:12.601Z,23.60
2023-06-20T05:41:40.637Z,23.60
2023-06-20T05:44:11.670Z,23.60
2023-06-20T05:46:39.905Z,23.60
2023-06-20T05:49:12.331Z,23.70
2023-06-20T05:51:48.884Z,23.70
2023-06-20T05:54:24.009Z,23.70
2023-06-20T05:56:58.944Z,23.70
2023-06-20T05:59:41.187Z,23.70
2023-06-20T06:02:09.609Z,23.70
2023-06-20T06:04:39.450Z,23.80
2023-06-20T06:07:08.743Z,23.80
2023-06-20T06:09:38.231Z,23.80
2023-06-20T06:12:07.271Z,23.90
2023-06-20T06:14:35.525Z,23.90
2023-06-20T06:17:03.735Z,23.90
2023-06-20T06:19:31.936Z,24.00
2023-06-20T06:22:04.905Z,24.00
2023-06-20T06:24:33.370Z,24.00
2023-06-20T06:27:04.272Z,24.00
2023-06-20T06:29:34.562Z,24.10
2023-06-20T06:32:04.075Z,24.10
2023-06-20T06:34:33.597Z,24.10
2023-06-20T06:37:02.730Z,24.20
2023-06-20T06:39:30.842Z,24.20
2023-06-20T06:41:59.034Z,24.20
2023-06-20T06:44:30.187Z,24.20
2023-06-20T06:46:58.698Z,24.30
2023-06-20T06:49:28.324Z,24.30
2023-06-20T06:51:57.862Z,24.30
2023-06-20T06:54:25.965Z,24.30
2023-06-20T06:56:54.346Z,24.30
2023-06-20T06:59:24.726Z,24.30
2023-06-20T07:01:54.652Z,24.30
2023-06-20T07:04:27.312Z,24.30
2023-06-20T07:06:55.583Z,24.30
2023-06-20T07:09:23.993Z,24.30
2023-06-20T07:11:52.032Z,24.40
2023-06-20T07:14:20.138Z,24.40
2023-06-20T07:17:03.742Z,24.40
2023-06-20T07:19:34.991Z,24.50
2023-06-20T07:22:04.847Z,24.50
2023-06-20T07:24:33.271Z,24.50
2023-06-20T07:27:25.769Z,24.50
2023-06-20T07:29:56.681Z,24.50
2023-06-20T07:32:24.763Z,24.50
2023-06-20T07:34:54.331Z,24.60
2023-06-20T07:37:22.673Z,24.60
2023-06-20T07:39:51.300Z,24.60
2023-06-20T07:42:19.528Z,24.70
2023-06-20T07:44:52.517Z,24.80
2023-06-20T07:47:21.112Z,24.80
2023-06-20T07:49:49.644Z,24.80
2023-06-20T07:52:20.824Z,24.90
2023-06-20T07:54:52.591Z,24.90
2023-06-20T07:57:32.305Z,25.00
2023-06-20T08:00:11.258Z,25.00
2023-06-20T08:02:43.901Z,25.10
2023-06-20T08:05:14.432Z,25.10
2023-06-20T08:07:43.968Z,25.20
2023-06-20T08:10:13.136Z,25.20
2023-06-20T08:13:01.660Z,25.30
2023-06-20T08:15:32.205Z,25.40
2023-06-20T08:18:00.437Z,25.40
2023-06-20T08:20:28.852Z,25.40
2023-06-20T08:23:05.953Z,25.50
2023-06-20T08:25:36.435Z,25.50
2023-06-20T08:28:14.885Z,25.50
2023-06-20T08:30:44.882Z,25.60
2023-06-20T08:33:21.109Z,25.60
2023-06-20T08:35:51.940Z,25.70
2023-06-20T08:38:23.433Z,25.70
2023-06-20T08:40:52.997Z,25.80
2023-06-20T08:43:23.557Z,25.90
2023-06-20T08:45:56.696Z,25.90
2023-06-20T08:48:27.539Z,25.90
2023-06-20T08:51:01.519Z,26.00
2023-06-20T08:53:31.188Z,26.00
2023-06-20T08:56:02.313Z,26.10
2023-06-20T08:58:33.459Z,26.10
2023-06-20T09:01:01.663Z,26.20
2023-06-20T09:03:29.895Z,26.20
2023-06-20T09:05:59.376Z,26.30
2023-06-20T09:09:01.562Z,26.40
2023-06-20T09:11:37.718Z,26.40
2023-06-20T09:14:07.127Z,26.50
2023-06-20T09:16:42.785Z,26.60
2023-06-20T09:19:17.279Z,26.60
2023-06-20T09:21:46.006Z,26.70
2023-06-20T09:24:18.915Z,26.80
2023-06-20T09:26:48.856Z,26.80
2023-06-20T09:29:20.155Z,26.80
2023-06-20T09:31:50.271Z,26.90
2023-06-20T09:34:19.694Z,27.00
2023-06-20T09:36:48.319Z,27.00
2023-06-20T09:39:21.773Z,27.00
2023-06-20T09:41:52.281Z,27.00
2023-06-20T09:44:20.964Z,27.10
2023-06-20T09:46:52.677Z,27.20
2023-06-20T09:49:21.719Z,27.20
2023-06-20T09:51:56.982Z,27.30
2023-06-20T09:54:35.904Z,27.30
2023-06-20T09:57:10.094Z,27.40
2023-06-20T09:59:43.383Z,27.40
2023-06-20T10:02:13.554Z,27.50
2023-06-20T10:04:45.054Z,27.50
2023-06-20T10:07:16.216Z,27.60
2023-06-20T10:09:53.167Z,27.70
2023-06-20T10:23:54.603Z,27.90
2023-06-20T10:26:24.778Z,27.90
2023-06-20T10:28:58.597Z,28.00
2023-06-20T10:31:27.132Z,28.00
2023-06-20T10:33:55.323Z,28.10
2023-06-20T10:36:33.316Z,28.20
2023-06-20T10:39:11.306Z,28.20
2023-06-20T10:41:43.878Z,28.30
2023-06-20T10:44:32.713Z,28.30
2023-06-20T10:47:02.230Z,28.40
2023-06-20T10:49:30.372Z,28.40
2023-06-20T10:51:59.062Z,28.50
2023-06-20T10:54:35.686Z,28.50
2023-06-20T10:57:08.630Z,28.60
2023-06-20T10:59:37.127Z,28.60
2023-06-20T11:02:09.539Z,28.60
2023-06-20T11:04:39.482Z,28.70
2023-06-20T11:07:42.976Z,28.80
2023-06-20T11:10:19.061Z,28.80
2023-06-20T11:12:48.647Z,28.90
2023-06-20T11:15:27.920Z,29.00
2023-06-20T11:17:57.350Z,29.00
2023-06-20T11:20:27.228Z,29.00
2023-06-20T11:22:57.432Z,29.10
2023-06-20T11:25:27.390Z,29.10
2023-06-20T11:27:57.078Z,29.20
2023-06-20T11:30:31.152Z,29.20
2023-06-20T11:33:04.984Z,29.30
2023-06-20T11:35:45.445Z,29.30
2023-06-20T11:38:18.233Z,29.30
2023-06-20T11:40:47.335Z,29.30
2023-06-20T11:43:28.268Z,29.40
2023-06-20T11:46:05.572Z,29.50
2023-06-20T11:48:34.085Z,29.50
2023-06-20T11:51:04.359Z,29.50
2023-06-20T11:53:36.265Z,29.50
2023-06-20T11:56:12.506Z,29.60
2023-06-20T11:58:44.087Z,29.60
2023-06-20T12:01:17.780Z,29.70
2023-06-20T12:03:46.985Z,29.70
2023-06-20T12:06:51.917Z,29.80
2023-06-20T12:09:20.128Z,29.90
2023-06-20T12:11:50.465Z,29.90
2023-06-20T12:14:20.505Z,29.90
2023-06-20T12:16:48.713Z,29.90
2023-06-20T12:19:18.048Z,30.00
2023-06-20T12:21:46.209Z,30.00
2023-06-20T12:24:14.709Z,30.20
2023-06-20T12:26:43.333Z,30.20
2023-06-20T12:29:11.484Z,30.30
2023-06-20T12:31:40.986Z,30.30
2023-06-20T12:34:09.171Z,30.30
2023-06-20T12:36:37.428Z,30.30
2023-06-20T12:39:05.609Z,30.30
2023-06-20T12:41:35.281Z,30.30
2023-06-20T12:44:04.085Z,30.30
2023-06-20T12:46:32.453Z,30.30
2023-06-20T12:49:02.156Z,30.30
2023-06-20T12:51:32.066Z,30.30
2023-06-20T12:54:01.221Z,30.30
2023-06-20T12:56:29.347Z,30.30
2023-06-20T12:58:58.323Z,30.30
2023-06-20T13:01:26.471Z,30.40
2023-06-20T13:03:55.039Z,30.50
2023-06-20T13:06:24.627Z,30.50
2023-06-20T13:08:52.776Z,30.50
2023-06-20T13:11:21.583Z,30.50
2023-06-20T13:13:49.878Z,30.50
2023-06-20T13:16:19.747Z,30.40
2023-06-20T13:18:48.229Z,30.40
2023-06-20T13:21:16.748Z,30.40
2023-06-20T13:23:59.855Z,30.40
2023-06-20T13:26:35.164Z,30.30
2023-06-20T13:29:03.539Z,30.30
2023-06-20T13:31:31.671Z,30.30
2023-06-20T13:33:59.790Z,30.30
2023-06-20T13:36:29.117Z,30.20
2023-06-20T13:38:59.297Z,30.20
2023-06-20T13:41:27.411Z,30.10
2023-06-20T13:43:55.654Z,30.00
2023-06-20T13:46:23.848Z,30.00
2023-06-20T13:48:52.814Z,30.00
2023-06-20T13:51:21.380Z,30.00
2023-06-20T13:53:50.446Z,29.90
2023-06-20T13:56:24.168Z,29.90
2023-06-20T13:58:52.603Z,29.80
2023-06-20T14:01:23.719Z,29.80
2023-06-20T14:03:52.298Z,29.70
2023-06-20T14:06:20.995Z,29.70
2023-06-20T14:08:50.350Z,29.60
2023-06-20T14:11:19.923Z,29.60
2023-06-20T14:13:47.991Z,29.60
2023-06-20T14:16:16.565Z,29.50
2023-06-20T14:18:44.829Z,29.40
2023-06-20T14:21:13.899Z,29.30
2023-06-20T14:23:46.275Z,29.30
2023-06-20T14:26:17.211Z,29.20
2023-06-20T14:28:47.933Z,29.00
2023-06-20T14:31:16.711Z,28.80
2023-06-20T14:33:47.922Z,28.60
2023-06-20T14:36:16.413Z,28.40
2023-06-20T14:38:48.994Z,28.10
2023-06-20T14:41:17.527Z,27.80
2023-06-20T14:43:47.806Z,27.50
2023-06-20T14:46:16.400Z,27.30
2023-06-20T14:48:45.031Z,27.20
2023-06-20T14:51:13.339Z,27.00
2023-06-20T14:53:44.117Z,26.90
2023-06-20T14:56:12.229Z,26.70
2023-06-20T14:58:40.562Z,26.60
2023-06-20T15:01:10.178Z,26.50
2023-06-20T15:03:38.612Z,26.40
2023-06-20T15:06:06.880Z,26.30
2023-06-20T15:08:34.955Z,26.20
2023-06-20T15:11:10.393Z,26.20
2023-06-20T15:13:38.461Z,26.10
2023-06-20T15:16:06.721Z,26.00
2023-06-20T15:18:38.589Z,26.00
2023-06-20T15:21:07.632Z,25.90
2023-06-20T15:23:35.808Z,25.80
2023-06-20T15:26:03.823Z,25.70
2023-06-20T15:28:31.959Z,25.70
2023-06-20T15:31:01.704Z,25.60
2023-06-20T15:33:29.926Z,25.50
2023-06-20T15:36:01.316Z,25.40
2023-06-20T15:38:29.597Z,25.40
2023-06-20T15:40:57.602Z,25.30
2023-06-20T15:43:25.666Z,25.30
2023-06-20T15:45:53.752Z,25.10
2023-06-20T15:48:24.980Z,25.10
2023-06-20T15:50:53.231Z,25.10
2023-06-20T15:53:22.870Z,25.10
2023-06-20T15:55:50.877Z,25.00
2023-06-20T15:58:19.651Z,25.00
2023-06-20T16:00:47.953Z,25.00
2023-06-20T16:03:16.586Z,24.90
2023-06-20T16:05:44.903Z,24.80
2023-06-20T16:08:13.050Z,24.80
2023-06-20T16:10:42.556Z,24.80
2023-06-20T16:13:11.849Z,24.80
2023-06-20T16:15:39.886Z,24.80
2023-06-20T16:18:08.116Z,24.70
2023-06-20T16:20:36.469Z,24.70
2023-06-20T16:23:04.602Z,24.70
2023-06-20T16:25:32.876Z,24.60
2023-06-20T16:28:03.176Z,24.60
2023-06-20T16:30:31.253Z,24.60
2023-06-20T16:33:03.436Z,24.50
2023-06-20T16:35:32.587Z,24.50
2023-06-20T16:38:00.805Z,24.50
2023-06-20T16:40:28.894Z,24.50
2023-06-20T16:42:57.084Z,24.50
2023-06-20T16:45:27.357Z,24.50
2023-06-20T16:47:55.541Z,24.40
2023-06-20T16:50:25.982Z,24.40
2023-06-20T16:52:54.391Z,24.40
2023-06-20T16:55:22.463Z,24.40
2023-06-20T16:57:50.547Z,24.40
2023-06-20T17:00:19.719Z,24.40
2023-06-20T17:02:49.277Z,24.40
2023-06-20T17:05:17.573Z,24.30
2023-06-20T17:07:45.593Z,24.30
2023-06-20T17:10:13.593Z,24.30
2023-06-20T17:12:41.794Z,24.30
2023-06-20T17:15:10.631Z,24.30
2023-06-20T17:17:40.121Z,24.30
2023-06-20T17:20:10.270Z,24.30
2023-06-20T17:22:38.649Z,24.30
2023-06-20T17:25:07.560Z,24.30
2023-06-20T17:27:35.594Z,24.30
2023-06-20T17:30:03.779Z,24.30
2023-06-20T17:32:32.007Z,24.30
2023-06-20T17:35:00.187Z,24.30
2023-06-20T17:37:29.566Z,24.20
2023-06-20T17:39:57.632Z,24.20
2023-06-20T17:42:25.984Z,24.20
2023-06-20T17:44:54.027Z,24.20
2023-06-20T17:47:22.190Z,24.20
2023-06-20T17:49:50.414Z,24.20
2023-06-20T17:52:18.972Z,24.20
2023-06-20T17:54:48.408Z,24.10
2023-06-20T17:57:16.523Z,24.10
2023-06-20T17:59:44.665Z,24.10
2023-06-20T18:02:18.565Z,24.10
2023-06-20T18:04:46.920Z,24.10
2023-06-20T18:07:15.721Z,24.00
2023-06-20T18:09:48.645Z,24.00
2023-06-20T18:12:19.520Z,23.90
2023-06-20T18:14:47.786Z,23.90
2023-06-20T18:17:18.356Z,23.90
2023-06-20T18:19:56.450Z,23.80
2023-06-20T18:22:26.648Z,23.80
2023-06-20T18:25:04.128Z,23.80
2023-06-20T18:27:53.884Z,23.70
2023-06-20T18:30:26.120Z,23.70
2023-06-20T18:32:59.391Z,23.70
2023-06-20T18:35:48.677Z,23.70
2023-06-20T18:38:19.520Z,23.60
2023-06-20T18:40:49.026Z,23.60
2023-06-20T18:43:20.943Z,23.60
2023-06-20T18:45:50.841Z,23.60
2023-06-20T18:48:19.269Z,23.50
2023-06-20T18:50:48.988Z,23.50
2023-06-20T18:53:19.778Z,23.50
2023-06-20T18:55:50.457Z,23.50
2023-06-20T18:58:20.511Z,23.50
2023-06-20T19:00:49.564Z,23.50
2023-06-20T19:03:21.776Z,23.50
2023-06-20T19:05:52.580Z,23.50
2023-06-20T19:08:20.952Z,23.40
2023-06-20T19:10:51.686Z,23.40
2023-06-20T19:13:24.456Z,23.40
2023-06-20T19:15:55.328Z,23.40
2023-06-20T19:18:25.228Z,23.40
2023-06-20T19:21:00.419Z,23.40
2023-06-20T19:23:28.962Z,23.40
2023-06-20T19:25:58.630Z,23.40
2023-06-20T19:28:29.610Z,23.40
2023-06-20T19:31:02.885Z,23.40
2023-06-20T19:33:31.299Z,23.30
2023-06-20T19:36:00.115Z,23.30
2023-06-20T19:38:29.850Z,23.30
2023-06-20T19:41:00.424Z,23.30
2023-06-20T19:43:29.906Z,23.30
2023-06-20T19:46:00.094Z,23.30
2023-06-20T19:48:30.811Z,23.30
2023-06-20T19:51:04.386Z,23.20
2023-06-20T19:53:34.703Z,23.20
2023-06-20T19:56:05.675Z,23.20
2023-06-20T19:58:56.423Z,23.10
2023-06-20T20:01:27.511Z,23.10
2023-06-20T20:03:57.501Z,23.10
2023-06-20T20:06:27.328Z,23.10
2023-06-20T20:08:57.080Z,23.10
2023-06-20T20:11:26.041Z,23.10
2023-06-20T20:14:02.266Z,23.00
2023-06-20T20:16:32.570Z,23.00
2023-06-20T20:19:02.173Z,23.00
2023-06-20T20:21:31.698Z,23.00
2023-06-20T20:24:02.204Z,23.00
2023-06-20T20:26:38.080Z,22.90
2023-06-20T20:29:35.203Z,22.90
2023-06-20T20:32:12.804Z,22.90
2023-06-20T20:34:46.559Z,22.90
2023-06-20T20:37:24.747Z,22.90
2023-06-20T20:40:13.034Z,22.90
2023-06-20T20:42:44.310Z,22.90
2023-06-20T20:45:41.243Z,22.90
2023-06-20T20:48:35.884Z,22.80
2023-06-20T20:52:02.846Z,22.80
2023-06-20T20:54:35.542Z,22.80
2023-06-20T20:57:27.528Z,22.80
2023-06-20T21:00:16.444Z,22.80
2023-06-20T21:03:00.046Z,22.80
2023-06-20T21:05:43.642Z,22.80
2023-06-20T21:08:31.938Z,22.80
2023-06-20T21:11:05.992Z,22.80
2023-06-20T21:13:35.889Z,22.80
2023-06-20T21:16:05.349Z,22.80
2023-06-20T21:18:37.532Z,22.80
2023-06-20T21:21:51.487Z,22.80
2023-06-20T21:24:26.485Z,22.70
2023-06-20T21:26:55.703Z,22.70
2023-06-20T21:29:28.103Z,22.70
2023-06-20T21:34:42.945Z,22.70
2023-06-20T21:40:00.532Z,22.60
2023-06-20T21:42:36.849Z,22.60
2023-06-20T21:45:08.819Z,22.60
2023-06-20T21:47:39.789Z,22.50
2023-06-20T21:50:13.156Z,22.50
2023-06-20T21:55:36.586Z,22.50
2023-06-20T21:58:09.218Z,22.50
2023-06-20T22:00:41.772Z,22.50
2023-06-20T22:03:14.978Z,22.50
2023-06-20T22:05:56.713Z,22.50
2023-06-20T22:08:30.602Z,22.40
2023-06-20T22:11:23.309Z,22.40
2023-06-20T22:13:51.601Z,22.40
2023-06-20T22:16:26.239Z,22.40
2023-06-20T22:18:55.300Z,22.40
2023-06-20T22:21:36.209Z,22.40
2023-06-20T22:24:05.932Z,22.40
2023-06-20T22:26:43.220Z,22.40
2023-06-20T22:29:14.645Z,22.40
2023-06-20T22:31:47.957Z,22.40
2023-06-20T22:34:17.575Z,22.40
2023-06-20T22:37:02.900Z,22.30
2023-06-20T22:39:34.365Z,22.40
2023-06-20T22:42:06.922Z,22.30
2023-06-20T22:44:38.267Z,22.30
2023-06-20T22:47:09.011Z,22.30
2023-06-20T22:50:01.588Z,22.30
2023-06-20T22:52:35.741Z,22.30
2023-06-20T22:55:06.011Z,22.30
2023-06-20T22:57:41.717Z,22.30
2023-06-20T23:00:15.137Z,22.30
2023-06-20T23:02:44.320Z,22.20
2023-06-20T23:05:13.579Z,22.20
2023-06-20T23:08:04.316Z,22.20
2023-06-20T23:10:33.339Z,22.20
2023-06-20T23:13:06.401Z,22.10
2023-06-20T23:15:35.476Z,22.10
2023-06-20T23:18:04.039Z,22.10
2023-06-20T23:20:40.050Z,22.10
2023-06-20T23:23:17.533Z,22.10
2023-06-20T23:25:50.276Z,22.10
2023-06-20T23:28:20.025Z,22.00
2023-06-20T23:30:52.100Z,22.00
2023-06-20T23:33:33.005Z,22.00
2023-06-20T23:36:03.365Z,21.90
2023-06-20T23:38:37.960Z,21.90
2023-06-20T23:41:06.529Z,21.90
2023-06-20T23:43:39.960Z,21.90
2023-06-20T23:46:29.479Z,21.90
2023-06-20T23:49:00.115Z,21.80
2023-06-20T23:51:29.686Z,21.80
2023-06-20T23:54:21.613Z,21.80
2023-06-20T23:56:53.597Z,21.80
2023-06-20T23:59:22.608Z,21.80
